createdAt,value
2023-03-21T00:00:38.665Z,44.38
2023-03-21T00:01:38.666Z,43.55
2023-03-21T00:04:58.505Z,42.79
2023-03-21T00:05:56.358Z,42.51
2023-03-21T00:06:55.314Z,40.08
2023-03-21T00:07:55.298Z,41.98
2023-03-21T00:08:55.301Z,42.68
2023-03-21T00:10:01.889Z,43.63
2023-03-21T00:10:56.276Z,43.11
2023-03-21T00:11:55.254Z,44.07
2023-03-21T00:12:55.241Z,45.21
2023-03-21T00:13:55.232Z,43.52
2023-03-21T00:14:55.237Z,43.91
2023-03-21T00:16:13.420Z,42.29
2023-03-21T00:16:56.199Z,42.48
2023-03-21T00:17:55.191Z,44.32
2023-03-21T00:18:55.179Z,44.29
2023-03-21T00:19:55.173Z,45.20
2023-03-21T00:21:09.694Z,43.39
2023-03-21T00:22:07.064Z,43.33
2023-03-21T00:22:56.131Z,44.06
2023-03-21T00:23:55.125Z,43.11
2023-03-21T00:24:55.119Z,42.62
2023-03-21T00:25:55.111Z,41.85
2023-03-21T00:27:00.181Z,42.72
2023-03-21T00:28:07.572Z,43.20
2023-03-21T00:28:56.061Z,42.06
2023-03-21T00:29:55.071Z,42.71
2023-03-21T00:30:55.039Z,42.57
2023-03-21T00:31:55.035Z,42.40
2023-03-21T00:32:56.676Z,45.11
2023-03-21T00:33:55.013Z,43.46
2023-03-21T00:35:23.281Z,43.81
2023-03-21T00:36:05.116Z,44.39
2023-03-21T00:36:56.065Z,43.97
2023-03-21T00:37:54.966Z,44.75
2023-03-21T00:38:54.970Z,45.81
2023-03-21T00:39:55.063Z,42.39
2023-03-21T00:40:55.678Z,41.53
2023-03-21T00:41:54.962Z,41.83
2023-03-21T00:42:54.920Z,43.65
2023-03-21T00:43:54.919Z,43.98
2023-03-21T00:44:54.901Z,42.95
2023-03-21T00:45:54.886Z,40.98
2023-03-21T00:47:06.668Z,42.11
2023-03-21T00:47:56.019Z,42.89
2023-03-21T00:48:54.849Z,42.37
2023-03-21T00:49:54.849Z,42.33
2023-03-21T00:50:54.833Z,44.23
2023-03-21T00:51:55.371Z,42.79
2023-03-21T00:52:54.805Z,45.50
2023-03-21T00:53:54.800Z,45.87
2023-03-21T00:54:54.806Z,42.04
2023-03-21T00:55:54.790Z,43.61
2023-03-21T00:56:54.763Z,44.54
2023-03-21T00:58:01.598Z,43.34
2023-03-21T00:58:55.744Z,43.15
2023-03-21T00:59:54.762Z,43.31
2023-03-21T01:00:54.783Z,41.84
2023-03-21T01:01:54.743Z,43.37
2023-03-21T01:03:00.228Z,44.31
2023-03-21T01:03:55.697Z,43.63
2023-03-21T01:04:54.699Z,41.02
2023-03-21T01:05:54.677Z,42.23
2023-03-21T01:06:54.653Z,42.28
2023-03-21T01:07:54.646Z,42.19
2023-03-21T01:08:54.632Z,44.11
2023-03-21T01:09:54.642Z,43.34
2023-03-21T01:10:54.629Z,42.26
2023-03-21T01:11:54.626Z,42.86
2023-03-21T01:12:54.590Z,43.74
2023-03-21T01:14:04.276Z,42.86
2023-03-21T01:14:55.586Z,42.78
2023-03-21T01:15:54.642Z,42.59
2023-03-21T01:16:54.564Z,42.72
2023-03-21T01:17:54.541Z,41.13
2023-03-21T01:18:54.533Z,41.55
2023-03-21T01:19:54.532Z,43.78
2023-03-21T01:20:54.508Z,44.93
2023-03-21T01:21:54.500Z,43.81
2023-03-21T01:22:54.481Z,43.18
2023-03-21T01:23:54.479Z,43.30
2023-03-21T01:25:00.513Z,43.58
2023-03-21T01:25:55.457Z,45.97
2023-03-21T01:26:54.443Z,42.96
2023-03-21T01:27:54.437Z,42.63
2023-03-21T01:28:54.426Z,42.29
2023-03-21T01:29:54.442Z,44.02
2023-03-21T01:30:54.395Z,42.23
2023-03-21T01:31:54.423Z,42.22
2023-03-21T01:32:54.374Z,42.27
2023-03-21T01:33:54.363Z,46.93
2023-03-21T01:34:54.359Z,43.93
2023-03-21T01:36:03.257Z,43.48
2023-03-21T01:36:55.342Z,42.66
2023-03-21T01:37:54.327Z,43.85
2023-03-21T01:38:54.311Z,43.50
2023-03-21T01:39:54.310Z,42.83
2023-03-21T01:40:54.290Z,41.60
2023-03-21T01:41:54.279Z,39.35
2023-03-21T01:42:54.268Z,40.46
2023-03-21T01:43:54.262Z,41.51
2023-03-21T01:44:54.252Z,41.21
2023-03-21T01:45:54.269Z,41.35
2023-03-21T01:47:09.285Z,40.49
2023-03-21T01:47:55.244Z,43.17
2023-03-21T01:48:54.201Z,44.39
2023-03-21T01:49:54.210Z,44.72
2023-03-21T01:50:54.186Z,44.75
2023-03-21T01:51:56.711Z,43.83
2023-03-21T01:52:54.153Z,44.74
2023-03-21T01:53:54.143Z,43.82
2023-03-21T01:54:54.136Z,42.08
2023-03-21T01:55:54.132Z,43.72
2023-03-21T01:56:54.112Z,42.02
2023-03-21T01:58:06.508Z,42.72
2023-03-21T01:58:55.104Z,43.01
2023-03-21T01:59:54.080Z,40.57
2023-03-21T02:00:54.101Z,42.50
2023-03-21T02:01:55.193Z,42.18
2023-03-21T02:02:58.178Z,45.40
2023-03-21T02:03:56.215Z,43.34
2023-03-21T02:04:55.166Z,42.04
2023-03-21T02:05:55.168Z,42.14
2023-03-21T02:06:55.152Z,43.70
2023-03-21T02:07:55.148Z,44.66
2023-03-21T02:08:55.136Z,43.58
2023-03-21T02:09:55.121Z,40.79
2023-03-21T02:10:55.119Z,41.62
2023-03-21T02:11:55.075Z,43.74
2023-03-21T02:12:55.083Z,44.23
2023-03-21T02:14:05.689Z,42.69
2023-03-21T02:14:57.065Z,43.24
2023-03-21T02:15:55.091Z,44.11
2023-03-21T02:16:55.088Z,45.74
2023-03-21T02:17:55.035Z,44.76
2023-03-21T02:18:55.019Z,44.97
2023-03-21T02:19:55.047Z,43.44
2023-03-21T02:20:55.030Z,42.96
2023-03-21T02:21:55.003Z,43.29
2023-03-21T02:22:55.011Z,44.73
2023-03-21T02:23:54.978Z,45.26
2023-03-21T02:25:01.281Z,43.06
2023-03-21T02:25:57.020Z,43.61
2023-03-21T02:27:03.581Z,45.70
2023-03-21T02:27:56.957Z,43.22
2023-03-21T02:28:54.955Z,42.95
2023-03-21T02:29:54.955Z,42.88
2023-03-21T02:30:55.254Z,45.57
2023-03-21T02:31:58.824Z,43.48
2023-03-21T02:32:56.920Z,43.55
2023-03-21T02:33:54.910Z,44.74
2023-03-21T02:34:54.905Z,43.65
2023-03-21T02:35:58.616Z,42.59
2023-03-21T02:36:56.879Z,41.05
2023-03-21T02:38:00.100Z,43.47
2023-03-21T02:38:56.868Z,41.99
2023-03-21T02:39:54.836Z,44.77
2023-03-21T02:40:54.861Z,44.73
2023-03-21T02:41:54.839Z,44.33
2023-03-21T02:42:59.976Z,45.29
2023-03-21T02:43:56.798Z,45.16
2023-03-21T02:44:54.775Z,44.61
2023-03-21T02:45:54.843Z,46.96
2023-03-21T02:47:03.140Z,44.40
2023-03-21T02:47:56.744Z,46.26
2023-03-21T02:48:54.835Z,47.18
2023-03-21T02:49:54.769Z,45.69
2023-03-21T02:50:54.752Z,47.99
2023-03-21T02:51:54.908Z,44.00
2023-03-21T02:52:54.691Z,45.32
2023-03-21T02:54:21.909Z,45.54
2023-03-21T02:54:56.680Z,45.35
2023-03-21T02:55:54.682Z,44.86
2023-03-21T02:56:54.670Z,45.48
2023-03-21T02:57:54.700Z,48.61
2023-03-21T02:58:54.645Z,44.37
2023-03-21T03:00:00.275Z,45.33
2023-03-21T03:00:56.645Z,48.52
2023-03-21T03:01:54.612Z,45.04
2023-03-21T03:03:07.894Z,44.03
2023-03-21T03:03:56.612Z,44.84
2023-03-21T03:04:54.575Z,44.85
2023-03-21T03:05:54.606Z,43.54
2023-03-21T03:06:54.554Z,42.15
2023-03-21T03:07:54.570Z,44.02
2023-03-21T03:09:02.137Z,45.24
2023-03-21T03:09:56.555Z,44.87
2023-03-21T03:10:54.550Z,45.14
2023-03-21T03:11:54.542Z,47.28
2023-03-21T03:12:54.518Z,46.35
2023-03-21T03:13:54.679Z,44.72
2023-03-21T03:15:03.107Z,45.22
2023-03-21T03:15:56.504Z,45.27
2023-03-21T03:16:54.461Z,44.97
2023-03-21T03:17:54.451Z,46.29
2023-03-21T03:18:54.431Z,44.81
2023-03-21T03:19:54.985Z,43.58
2023-03-21T03:20:54.430Z,44.01
2023-03-21T03:21:54.439Z,44.47
2023-03-21T03:22:54.429Z,43.02
2023-03-21T03:23:54.392Z,45.00
2023-03-21T03:24:54.399Z,47.35
2023-03-21T03:25:54.380Z,46.92
2023-03-21T03:26:54.387Z,46.81
2023-03-21T03:27:54.375Z,45.13
2023-03-21T03:28:54.347Z,46.13
2023-03-21T03:29:54.355Z,45.83
2023-03-21T03:31:07.980Z,45.94
2023-03-21T03:31:56.368Z,46.81
2023-03-21T03:32:54.308Z,44.77
2023-03-21T03:33:54.311Z,48.13
2023-03-21T03:34:54.312Z,46.89
2023-03-21T03:36:04.841Z,47.72
2023-03-21T03:36:56.419Z,46.75
2023-03-21T03:37:54.257Z,49.45
2023-03-21T03:38:54.255Z,46.99
2023-03-21T03:39:54.240Z,46.05
2023-03-21T03:40:54.241Z,47.39
2023-03-21T03:42:10.039Z,45.28
2023-03-21T03:42:56.257Z,45.89
2023-03-21T03:43:54.205Z,46.63
2023-03-21T03:44:54.204Z,46.69
2023-03-21T03:45:54.178Z,46.78
2023-03-21T03:46:54.258Z,46.47
2023-03-21T03:47:57.519Z,45.85
2023-03-21T03:48:55.142Z,44.90
2023-03-21T03:49:54.153Z,46.02
2023-03-21T03:50:54.153Z,46.86
2023-03-21T03:51:54.131Z,46.18
2023-03-21T03:52:57.362Z,49.70
2023-03-21T03:53:55.105Z,48.44
2023-03-21T03:54:54.102Z,47.40
2023-03-21T03:55:54.081Z,47.05
2023-03-21T03:56:54.097Z,46.28
2023-03-21T03:57:54.075Z,46.91
2023-03-21T03:58:54.060Z,47.45
2023-03-21T03:59:54.073Z,46.50
2023-03-21T04:00:54.056Z,47.77
2023-03-21T04:01:54.072Z,48.43
2023-03-21T04:02:54.103Z,49.80
2023-03-21T04:04:06.810Z,47.94
2023-03-21T04:04:56.012Z,47.35
2023-03-21T04:05:53.995Z,47.85
2023-03-21T04:06:53.996Z,47.92
2023-03-21T04:07:53.972Z,48.42
2023-03-21T04:08:53.971Z,48.56
2023-03-21T04:09:53.981Z,50.40
2023-03-21T04:10:53.969Z,48.37
2023-03-21T04:11:53.983Z,48.48
2023-03-21T04:12:53.942Z,51.41
2023-03-21T04:13:54.012Z,48.41
2023-03-21T04:14:57.034Z,49.18
2023-03-21T04:15:54.922Z,48.09
2023-03-21T04:16:53.891Z,52.38
2023-03-21T04:17:54.893Z,50.97
2023-03-21T04:18:53.870Z,48.13
2023-03-21T04:20:05.480Z,52.41
2023-03-21T04:20:55.843Z,51.42
2023-03-21T04:21:53.871Z,49.84
2023-03-21T04:22:53.858Z,50.58
2023-03-21T04:23:53.841Z,52.70
2023-03-21T04:24:53.818Z,51.01
2023-03-21T04:25:57.062Z,54.26
2023-03-21T04:26:54.827Z,50.38
2023-03-21T04:27:53.765Z,53.44
2023-03-21T04:28:53.784Z,51.00
2023-03-21T04:29:53.744Z,50.35
2023-03-21T04:31:02.259Z,52.01
2023-03-21T04:31:55.789Z,53.89
2023-03-21T04:32:53.718Z,52.36
2023-03-21T04:33:53.703Z,52.19
2023-03-21T04:34:53.728Z,55.45
2023-03-21T04:35:53.710Z,55.43
2023-03-21T04:36:53.693Z,54.73
2023-03-21T04:37:53.688Z,56.12
2023-03-21T04:38:53.778Z,55.53
2023-03-21T04:39:53.670Z,55.31
2023-03-21T04:40:53.676Z,54.97
2023-03-21T04:41:53.626Z,55.58
2023-03-21T04:42:53.640Z,53.94
2023-03-21T04:43:54.394Z,55.42
2023-03-21T04:44:53.598Z,55.63
2023-03-21T04:45:53.598Z,55.75
2023-03-21T04:46:53.596Z,55.35
2023-03-21T04:47:53.572Z,53.94
2023-03-21T04:48:53.575Z,52.30
2023-03-21T04:49:53.601Z,51.06
2023-03-21T04:50:53.586Z,50.29
2023-03-21T04:51:53.559Z,50.39
2023-03-21T04:52:53.532Z,51.15
2023-03-21T04:53:53.517Z,52.69
2023-03-21T04:54:53.494Z,56.09
2023-03-21T04:55:55.442Z,50.91
2023-03-21T04:56:54.473Z,49.52
2023-03-21T04:57:53.460Z,49.28
2023-03-21T04:58:53.471Z,52.24
2023-03-21T04:59:53.453Z,50.52
2023-03-21T05:00:53.489Z,53.98
2023-03-21T05:01:53.420Z,49.50
2023-03-21T05:02:53.438Z,53.15
2023-03-21T05:03:53.430Z,52.03
2023-03-21T05:04:53.408Z,49.38
2023-03-21T05:05:53.413Z,52.33
2023-03-21T05:06:53.343Z,53.17
2023-03-21T05:07:53.363Z,52.40
2023-03-21T05:08:53.342Z,50.65
2023-03-21T05:09:53.346Z,53.07
2023-03-21T05:10:53.330Z,51.31
2023-03-21T05:11:53.394Z,51.24
2023-03-21T05:12:53.331Z,53.10
2023-03-21T05:13:53.301Z,50.31
2023-03-21T05:14:53.294Z,52.18
2023-03-21T05:15:53.286Z,51.38
2023-03-21T05:16:53.698Z,51.46
2023-03-21T05:17:53.270Z,52.34
2023-03-21T05:18:53.262Z,54.91
2023-03-21T05:19:53.254Z,52.01
2023-03-21T05:20:53.235Z,51.63
2023-03-21T05:21:53.211Z,51.45
2023-03-21T05:22:53.248Z,48.89
2023-03-21T05:23:53.201Z,47.98
2023-03-21T05:24:53.195Z,49.30
2023-03-21T05:25:53.195Z,55.30
2023-03-21T05:26:53.178Z,53.60
2023-03-21T05:27:53.161Z,49.87
2023-03-21T05:28:53.158Z,48.31
2023-03-21T05:29:53.158Z,52.65
2023-03-21T05:30:53.235Z,53.31
2023-03-21T05:31:53.138Z,50.73
2023-03-21T05:32:53.115Z,54.44
2023-03-21T05:33:53.097Z,56.16
2023-03-21T05:34:53.082Z,52.97
2023-03-21T05:35:53.119Z,51.88
2023-03-21T05:36:53.072Z,50.57
2023-03-21T05:37:53.072Z,52.48
2023-03-21T05:38:53.057Z,52.84
2023-03-21T05:39:53.046Z,52.55
2023-03-21T05:40:53.017Z,54.24
2023-03-21T05:41:53.009Z,49.59
2023-03-21T05:42:53.005Z,51.91
2023-03-21T05:43:52.990Z,52.32
2023-03-21T05:44:52.986Z,54.30
2023-03-21T05:45:53.005Z,55.65
2023-03-21T05:46:52.966Z,54.01
2023-03-21T05:47:52.940Z,55.47
2023-03-21T05:48:52.936Z,56.95
2023-03-21T05:49:52.941Z,54.56
2023-03-21T05:50:52.905Z,54.26
2023-03-21T05:51:52.910Z,53.08
2023-03-21T05:52:52.887Z,50.95
2023-03-21T05:53:52.899Z,53.91
2023-03-21T05:54:52.897Z,52.30
2023-03-21T05:55:52.885Z,54.12
2023-03-21T05:56:52.869Z,55.81
2023-03-21T05:57:52.866Z,50.07
2023-03-21T05:58:52.846Z,49.75
2023-03-21T05:59:52.815Z,53.64
2023-03-21T06:00:52.804Z,51.95
2023-03-21T06:01:52.810Z,55.25
2023-03-21T06:02:52.867Z,51.97
2023-03-21T06:03:52.829Z,53.05
2023-03-21T06:04:52.773Z,52.71
2023-03-21T06:05:52.795Z,50.96
2023-03-21T06:06:52.758Z,50.10
2023-03-21T06:07:52.756Z,55.92
2023-03-21T06:08:52.736Z,58.04
2023-03-21T06:09:52.744Z,54.17
2023-03-21T06:10:52.757Z,53.03
2023-03-21T06:11:52.706Z,53.72
2023-03-21T06:12:52.727Z,52.96
2023-03-21T06:13:53.691Z,52.26
2023-03-21T06:14:52.672Z,52.71
2023-03-21T06:15:52.732Z,53.12
2023-03-21T06:16:52.666Z,52.96
2023-03-21T06:17:52.661Z,52.64
2023-03-21T06:18:52.673Z,52.29
2023-03-21T06:19:52.663Z,54.41
2023-03-21T06:20:52.651Z,54.16
2023-03-21T06:21:52.616Z,55.53
2023-03-21T06:22:52.622Z,55.22
2023-03-21T06:23:52.611Z,54.88
2023-03-21T06:24:52.597Z,52.52
2023-03-21T06:25:52.631Z,53.51
2023-03-21T06:26:52.644Z,50.58
2023-03-21T06:27:52.589Z,50.95
2023-03-21T06:28:52.609Z,53.60
2023-03-21T06:29:52.543Z,50.90
2023-03-21T06:30:52.567Z,51.54
2023-03-21T06:31:52.541Z,55.28
2023-03-21T06:32:52.530Z,52.87
2023-03-21T06:33:52.591Z,56.20
2023-03-21T06:34:52.476Z,51.87
2023-03-21T06:35:52.542Z,57.92
2023-03-21T06:36:52.441Z,52.25
2023-03-21T06:37:52.512Z,52.51
2023-03-21T06:38:52.458Z,54.52
2023-03-21T06:39:54.021Z,53.39
2023-03-21T06:40:52.436Z,52.15
2023-03-21T06:41:52.406Z,53.69
2023-03-21T06:42:52.400Z,51.84
2023-03-21T06:43:52.394Z,50.73
2023-03-21T06:44:52.381Z,54.12
2023-03-21T06:45:52.360Z,54.60
2023-03-21T06:46:52.425Z,50.48
2023-03-21T06:47:52.361Z,52.86
2023-03-21T06:48:52.346Z,57.89
2023-03-21T06:49:52.340Z,53.92
2023-03-21T06:50:52.323Z,52.00
2023-03-21T06:51:52.305Z,54.92
2023-03-21T06:52:52.295Z,51.97
2023-03-21T06:53:52.310Z,55.21
2023-03-21T06:54:52.302Z,52.17
2023-03-21T06:55:52.316Z,51.21
2023-03-21T06:56:52.291Z,54.05
2023-03-21T06:57:52.296Z,50.51
2023-03-21T06:58:52.300Z,54.67
2023-03-21T06:59:52.242Z,50.11
2023-03-21T07:00:52.281Z,53.87
2023-03-21T07:01:52.230Z,55.30
2023-03-21T07:02:52.281Z,54.00
2023-03-21T07:03:52.197Z,51.90
2023-03-21T07:04:52.211Z,51.67
2023-03-21T07:05:52.175Z,56.79
2023-03-21T07:06:52.184Z,60.75
2023-03-21T07:07:52.138Z,53.23
2023-03-21T07:08:52.164Z,52.15
2023-03-21T07:09:52.134Z,49.63
2023-03-21T07:10:52.104Z,50.70
2023-03-21T07:11:52.112Z,51.14
2023-03-21T07:12:52.098Z,48.41
2023-03-21T07:13:52.100Z,48.29
2023-03-21T07:14:52.080Z,50.59
2023-03-21T07:15:52.058Z,50.32
2023-03-21T07:16:52.073Z,53.60
2023-03-21T07:17:52.046Z,51.66
2023-03-21T07:18:52.056Z,54.10
2023-03-21T07:19:52.067Z,49.33
2023-03-21T07:20:52.025Z,49.18
2023-03-21T07:21:52.025Z,53.21
2023-03-21T07:22:51.992Z,50.56
2023-03-21T07:23:52.003Z,45.76
2023-03-21T07:25:04.133Z,45.05
2023-03-21T07:25:54.088Z,54.34
2023-03-21T07:26:52.980Z,52.40
2023-03-21T07:27:51.937Z,47.28
2023-03-21T07:28:51.958Z,50.22
2023-03-21T07:29:51.948Z,52.30
2023-03-21T07:30:51.948Z,48.26
2023-03-21T07:31:51.963Z,51.67
2023-03-21T07:32:51.910Z,48.93
2023-03-21T07:33:51.924Z,53.26
2023-03-21T07:34:51.920Z,52.75
2023-03-21T07:35:51.907Z,51.25
2023-03-21T07:36:51.895Z,51.04
2023-03-21T07:37:51.900Z,54.05
2023-03-21T07:38:51.905Z,49.73
2023-03-21T07:39:51.863Z,50.32
2023-03-21T07:40:51.839Z,55.30
2023-03-21T07:41:51.811Z,50.03
2023-03-21T07:42:51.829Z,50.53
2023-03-21T07:43:51.843Z,53.32
2023-03-21T07:44:51.821Z,47.86
2023-03-21T07:45:51.819Z,50.39
2023-03-21T07:46:51.781Z,49.39
2023-03-21T07:47:51.824Z,51.77
2023-03-21T07:48:51.756Z,51.31
2023-03-21T07:49:51.751Z,50.11
2023-03-21T07:50:51.726Z,50.13
2023-03-21T07:51:51.715Z,48.14
2023-03-21T07:52:51.691Z,51.97
2023-03-21T07:53:51.711Z,47.87
2023-03-21T07:54:51.691Z,44.98
2023-03-21T07:55:51.663Z,48.07
2023-03-21T07:56:51.669Z,52.98
2023-03-21T07:57:51.669Z,51.80
2023-03-21T07:58:51.650Z,50.88
2023-03-21T07:59:51.636Z,51.51
2023-03-21T08:00:51.637Z,51.99
2023-03-21T08:01:51.622Z,47.93
2023-03-21T08:02:51.601Z,53.53
2023-03-21T08:03:51.628Z,48.94
2023-03-21T08:04:51.568Z,50.94
2023-03-21T08:05:51.576Z,51.09
2023-03-21T08:06:51.571Z,50.73
2023-03-21T08:07:51.568Z,45.25
2023-03-21T08:08:51.603Z,47.49
2023-03-21T08:09:51.541Z,50.03
2023-03-21T08:10:51.543Z,49.03
2023-03-21T08:11:51.511Z,45.61
2023-03-21T08:12:51.508Z,44.85
2023-03-21T08:13:51.499Z,49.19
2023-03-21T08:14:51.474Z,50.87
2023-03-21T08:15:51.473Z,49.87
2023-03-21T08:16:51.581Z,51.42
2023-03-21T08:17:51.448Z,49.37
2023-03-21T08:18:51.453Z,45.33
2023-03-21T08:19:51.419Z,53.27
2023-03-21T08:20:51.430Z,50.79
2023-03-21T08:21:51.403Z,50.10
2023-03-21T08:22:51.393Z,47.79
2023-03-21T08:23:51.406Z,52.09
2023-03-21T08:24:51.385Z,48.77
2023-03-21T08:25:51.381Z,47.49
2023-03-21T08:26:51.364Z,49.85
2023-03-21T08:27:51.356Z,53.21
2023-03-21T08:28:51.372Z,51.86
2023-03-21T08:29:51.346Z,49.92
2023-03-21T08:30:51.380Z,48.62
2023-03-21T08:31:51.329Z,49.53
2023-03-21T08:32:51.364Z,46.72
2023-03-21T08:33:51.305Z,52.79
2023-03-21T08:34:51.307Z,50.68
2023-03-21T08:35:51.324Z,44.67
2023-03-21T08:36:52.277Z,47.30
2023-03-21T08:37:51.254Z,51.32
2023-03-21T08:38:51.268Z,48.32
2023-03-21T08:39:51.323Z,50.79
2023-03-21T08:40:51.236Z,52.51
2023-03-21T08:41:51.256Z,50.07
2023-03-21T08:42:51.212Z,48.71
2023-03-21T08:43:51.233Z,51.93
2023-03-21T08:44:51.209Z,50.27
2023-03-21T08:45:51.181Z,49.77
2023-03-21T08:46:51.161Z,52.86
2023-03-21T08:47:51.224Z,52.08
2023-03-21T08:48:51.172Z,44.63
2023-03-21T08:49:51.157Z,50.11
2023-03-21T08:50:51.158Z,48.42
2023-03-21T08:51:51.141Z,47.38
2023-03-21T08:52:51.148Z,52.23
2023-03-21T08:53:51.098Z,50.81
2023-03-21T08:54:51.119Z,47.19
2023-03-21T08:55:51.092Z,44.72
2023-03-21T08:56:51.068Z,51.10
2023-03-21T08:57:51.055Z,45.72
2023-03-21T08:58:51.056Z,45.87
2023-03-21T08:59:51.051Z,49.70
2023-03-21T09:00:51.041Z,49.48
2023-03-21T09:01:51.120Z,51.06
2023-03-21T09:02:51.019Z,48.15
2023-03-21T09:03:51.007Z,53.87
2023-03-21T09:04:51.015Z,50.35
2023-03-21T09:05:50.992Z,47.34
2023-03-21T09:06:50.975Z,46.50
2023-03-21T09:07:50.953Z,46.82
2023-03-21T09:08:51.954Z,51.87
2023-03-21T09:10:08.113Z,47.86
2023-03-21T09:10:52.935Z,54.89
2023-03-21T09:11:52.583Z,45.71
2023-03-21T09:12:51.913Z,45.82
2023-03-21T09:13:50.904Z,44.01
2023-03-21T09:15:03.643Z,47.62
2023-03-21T09:15:50.956Z,50.43
2023-03-21T09:16:50.899Z,48.65
2023-03-21T09:17:50.928Z,45.34
2023-03-21T09:18:50.906Z,47.38
2023-03-21T09:19:50.932Z,52.97
2023-03-21T09:20:50.841Z,54.59
2023-03-21T09:21:51.884Z,50.01
2023-03-21T09:22:50.848Z,53.64
2023-03-21T09:23:50.882Z,52.64
2023-03-21T09:24:50.856Z,49.59
2023-03-21T09:25:50.871Z,47.37
2023-03-21T09:26:50.904Z,51.33
2023-03-21T09:27:50.796Z,49.33
2023-03-21T09:28:50.795Z,51.45
2023-03-21T09:29:50.799Z,50.13
2023-03-21T09:30:51.781Z,50.91
2023-03-21T09:31:50.766Z,51.24
2023-03-21T09:32:50.760Z,49.03
2023-03-21T09:33:50.746Z,49.67
2023-03-21T09:34:50.745Z,53.69
2023-03-21T09:35:51.893Z,48.07
2023-03-21T09:36:51.728Z,46.30
2023-03-21T09:37:50.733Z,49.39
2023-03-21T09:38:50.693Z,49.08
2023-03-21T09:39:50.721Z,49.80
2023-03-21T09:40:50.700Z,52.62
2023-03-21T09:41:50.687Z,52.43
2023-03-21T09:42:50.658Z,49.01
2023-03-21T09:43:50.678Z,49.88
2023-03-21T09:44:50.650Z,48.40
2023-03-21T09:45:50.639Z,47.08
2023-03-21T09:46:50.652Z,52.90
2023-03-21T09:47:51.619Z,52.89
2023-03-21T09:48:57.187Z,48.93
2023-03-21T09:49:54.655Z,51.65
2023-03-21T09:50:50.575Z,52.49
2023-03-21T09:51:50.578Z,52.49
2023-03-21T09:52:50.541Z,57.28
2023-03-21T09:53:51.542Z,46.65
2023-03-21T09:54:50.562Z,46.87
2023-03-21T09:55:50.536Z,49.71
2023-03-21T09:56:50.539Z,53.08
2023-03-21T09:57:50.502Z,50.62
2023-03-21T09:58:50.500Z,44.94
2023-03-21T09:59:50.499Z,52.87
2023-03-21T10:00:50.472Z,48.10
2023-03-21T10:01:50.476Z,46.47
2023-03-21T10:02:50.450Z,45.68
2023-03-21T10:03:50.467Z,51.43
2023-03-21T10:04:50.511Z,47.34
2023-03-21T10:05:50.410Z,51.39
2023-03-21T10:06:50.436Z,48.41
2023-03-21T10:07:50.424Z,51.48
2023-03-21T10:08:50.407Z,48.52
2023-03-21T10:09:50.444Z,46.98
2023-03-21T10:10:50.380Z,47.78
2023-03-21T10:11:50.399Z,49.82
2023-03-21T10:12:51.366Z,46.92
2023-03-21T10:13:50.355Z,48.75
2023-03-21T10:14:50.341Z,46.65
2023-03-21T10:15:50.319Z,47.13
2023-03-21T10:16:50.437Z,49.24
2023-03-21T10:17:50.302Z,49.57
2023-03-21T10:18:51.315Z,47.46
2023-03-21T10:19:50.278Z,47.79
2023-03-21T10:20:50.286Z,54.41
2023-03-21T10:22:01.247Z,50.69
2023-03-21T10:22:52.269Z,50.99
2023-03-21T10:23:50.256Z,45.56
2023-03-21T10:24:50.229Z,47.50
2023-03-21T10:25:50.253Z,50.98
2023-03-21T10:26:50.224Z,46.56
2023-03-21T10:27:50.211Z,46.71
2023-03-21T10:28:53.113Z,49.41
2023-03-21T10:29:51.195Z,52.10
2023-03-21T10:30:51.195Z,51.32
2023-03-21T10:31:50.198Z,47.60
2023-03-21T10:32:50.843Z,47.12
2023-03-21T10:33:50.177Z,46.51
2023-03-21T10:34:50.159Z,44.21
2023-03-21T10:35:50.154Z,46.24
2023-03-21T10:36:50.099Z,51.28
2023-03-21T10:37:50.109Z,48.16
2023-03-21T10:38:50.097Z,48.45
2023-03-21T10:39:50.088Z,49.84
2023-03-21T10:40:50.097Z,51.30
2023-03-21T10:41:50.057Z,48.48
2023-03-21T10:42:50.051Z,54.47
2023-03-21T10:43:50.058Z,46.83
2023-03-21T10:44:50.067Z,45.88
2023-03-21T10:45:50.119Z,51.64
2023-03-21T10:46:50.159Z,48.02
2023-03-21T10:47:50.253Z,46.19
2023-03-21T10:48:50.149Z,47.19
2023-03-21T10:50:06.740Z,52.30
2023-03-21T10:50:52.015Z,52.07
2023-03-21T10:51:49.983Z,51.23
2023-03-21T10:52:49.963Z,47.57
2023-03-21T10:53:49.952Z,48.64
2023-03-21T10:54:49.966Z,46.36
2023-03-21T10:55:49.942Z,45.81
2023-03-21T10:56:49.933Z,47.58
2023-03-21T10:57:49.915Z,51.95
2023-03-21T10:58:49.894Z,51.75
2023-03-21T10:59:49.907Z,50.53
2023-03-21T11:00:49.941Z,47.51
2023-03-21T11:01:49.904Z,51.63
2023-03-21T11:02:50.038Z,53.68
2023-03-21T11:03:49.939Z,49.55
2023-03-21T11:04:49.836Z,52.57
2023-03-21T11:05:49.846Z,46.88
2023-03-21T11:06:49.818Z,47.64
2023-03-21T11:07:49.813Z,46.80
2023-03-21T11:08:49.832Z,51.04
2023-03-21T11:09:52.498Z,45.84
2023-03-21T11:10:49.818Z,57.66
2023-03-21T11:11:49.792Z,52.51
2023-03-21T11:12:49.810Z,45.60
2023-03-21T11:13:49.782Z,52.37
2023-03-21T11:14:49.759Z,50.80
2023-03-21T11:15:49.751Z,51.96
2023-03-21T11:16:49.767Z,47.76
2023-03-21T11:17:49.728Z,48.75
2023-03-21T11:18:49.730Z,48.04
2023-03-21T11:19:51.229Z,49.46
2023-03-21T11:20:49.754Z,50.86
2023-03-21T11:21:49.694Z,45.68
2023-03-21T11:22:49.722Z,51.35
2023-03-21T11:23:49.833Z,47.77
2023-03-21T11:24:49.649Z,51.99
2023-03-21T11:25:49.667Z,48.73
2023-03-21T11:26:49.696Z,47.97
2023-03-21T11:27:49.657Z,44.12
2023-03-21T11:28:49.623Z,49.28
2023-03-21T11:29:49.605Z,49.70
2023-03-21T11:30:49.648Z,51.27
2023-03-21T11:31:49.590Z,51.59
2023-03-21T11:32:49.576Z,52.46
2023-03-21T11:33:49.558Z,47.49
2023-03-21T11:34:49.568Z,46.99
2023-03-21T11:35:49.581Z,47.53
2023-03-21T11:36:49.537Z,47.90
2023-03-21T11:37:49.537Z,52.87
2023-03-21T11:38:49.537Z,53.41
2023-03-21T11:39:49.511Z,52.68
2023-03-21T11:40:49.676Z,48.11
2023-03-21T11:41:49.548Z,53.87
2023-03-21T11:42:49.490Z,49.46
2023-03-21T11:43:49.480Z,55.16
2023-03-21T11:44:49.472Z,54.97
2023-03-21T11:45:49.424Z,50.49
2023-03-21T11:46:49.446Z,47.88
2023-03-21T11:47:49.455Z,50.17
2023-03-21T11:48:49.389Z,48.44
2023-03-21T11:49:51.295Z,51.99
2023-03-21T11:50:50.357Z,49.84
2023-03-21T11:51:49.353Z,45.67
2023-03-21T11:52:49.340Z,52.54
2023-03-21T11:53:49.334Z,49.22
2023-03-21T11:54:49.338Z,51.11
2023-03-21T11:55:49.301Z,44.88
2023-03-21T11:56:49.302Z,50.94
2023-03-21T11:57:49.278Z,48.95
2023-03-21T11:58:49.341Z,51.05
2023-03-21T11:59:49.259Z,51.98
2023-03-21T12:00:49.263Z,48.59
2023-03-21T12:01:49.259Z,52.61
2023-03-21T12:02:49.275Z,51.61
2023-03-21T12:03:49.484Z,51.11
2023-03-21T12:04:49.217Z,53.09
2023-03-21T12:05:49.200Z,49.82
2023-03-21T12:06:49.203Z,46.10
2023-03-21T12:07:49.188Z,44.67
2023-03-21T12:08:49.181Z,44.90
2023-03-21T12:09:49.174Z,50.18
2023-03-21T12:10:49.163Z,55.87
2023-03-21T12:11:49.157Z,53.48
2023-03-21T12:12:49.133Z,51.63
2023-03-21T12:13:49.132Z,56.28
2023-03-21T12:14:50.128Z,52.13
2023-03-21T12:15:49.195Z,50.64
2023-03-21T12:16:49.113Z,51.44
2023-03-21T12:17:49.096Z,51.47
2023-03-21T12:18:49.084Z,53.85
2023-03-21T12:19:49.101Z,47.67
2023-03-21T12:20:49.066Z,57.16
2023-03-21T12:21:49.065Z,48.90
2023-03-21T12:22:49.044Z,53.10
2023-03-21T12:23:49.027Z,51.68
2023-03-21T12:24:49.023Z,49.77
2023-03-21T12:25:49.014Z,46.75
2023-03-21T12:26:49.050Z,51.16
2023-03-21T12:27:48.988Z,49.98
2023-03-21T12:28:49.980Z,54.37
2023-03-21T12:29:48.973Z,50.13
2023-03-21T12:30:48.982Z,46.75
2023-03-21T12:31:49.072Z,50.39
2023-03-21T12:32:48.995Z,51.14
2023-03-21T12:33:48.935Z,53.68
2023-03-21T12:34:48.925Z,53.96
2023-03-21T12:35:48.968Z,47.74
2023-03-21T12:36:48.907Z,50.37
2023-03-21T12:37:48.895Z,51.34
2023-03-21T12:38:48.974Z,50.01
2023-03-21T12:39:48.875Z,50.83
2023-03-21T12:40:48.864Z,44.89
2023-03-21T12:41:48.866Z,50.54
2023-03-21T12:42:48.842Z,47.94
2023-03-21T12:43:48.829Z,48.27
2023-03-21T12:44:48.826Z,45.39
2023-03-21T12:45:49.269Z,50.69
2023-03-21T12:46:48.863Z,47.63
2023-03-21T12:47:48.878Z,46.05
2023-03-21T12:48:48.786Z,44.97
2023-03-21T12:49:48.765Z,48.62
2023-03-21T12:50:48.760Z,43.76
2023-03-21T12:51:48.763Z,45.97
2023-03-21T12:52:48.750Z,49.58
2023-03-21T12:53:48.738Z,48.25
2023-03-21T12:54:48.825Z,49.28